Time;durP1;ratioP1;P1;durP2;ratioP2;P2;SDS_P1;SDS_P2;PMS_P1;PMS_P2;Temp;Humidity;BMP_temperature;BMP_pressure;BME280_temperature;BME280_humidity;BME280_pressure;Samples;Min_cycle;Max_cycle;Signal;HPM_P1;HPM_P2
2023/04/02 00:01:42;;;;;;;;;;;;;;;15.35;57.19;99717.47;4973265;28;19918;-80
2023/04/02 00:04:36;;;;;;;;;;;;;;;15.27;57.18;99715.81;4959873;28;19925;-80
2023/04/02 00:15:02;;;;;;;;;;;;;;;15.23;57.69;99723.97;4970154;28;19918;-80
2023/04/02 00:17:53;;;;;;;;;;;;;;;15.35;56.99;99722.94;4973233;28;19918;-80
2023/04/02 00:20:47;;;;;;;;;;;;;;;15.24;57.14;99732.94;4960446;28;20382;-79
2023/04/02 00:23:41;;;;;;;;;;;;;;;15.16;57.77;99723.88;4964012;28;20325;-81
2023/04/02 00:26:33;;;;;;;;;;;;;;;15.07;58.29;99734.31;4973949;28;19926;-79
2023/04/02 00:29:23;;;;;;;;;;;;;;;15.08;58.08;99729.63;4972651;28;20309;-80
2023/04/02 00:32:18;;;;;;;;;;;;;;;15.04;58.36;99729.53;4974980;28;20304;-84
2023/04/02 00:35:27;;;;;;;;;;;;;;;14.99;58.57;99732.59;4968279;28;19918;-85
2023/04/02 00:38:28;;;;;;;;;;;;;;;14.97;58.61;99733.00;4954290;28;20306;-83
2023/04/02 00:41:21;;;;;;;;;;;;;;;14.96;58.56;99728.66;4982259;28;19918;-84
2023/04/02 00:48:21;;;;;;;;;;;;;;;14.91;58.75;99733.66;5003766;28;20293;-86
2023/04/02 00:51:15;;;;;;;;;;;;;;;14.88;58.97;99731.69;5001885;28;19918;-83
2023/04/02 00:54:08;;;;;;;;;;;;;;;14.90;58.81;99732.88;4988865;28;20297;-85
2023/04/02 00:57:00;;;;;;;;;;;;;;;14.94;58.41;99735.66;5002585;28;19917;-86
2023/04/02 00:59:56;;;;;;;;;;;;;;;14.85;59.30;99732.38;5046612;22;19924;-81
2023/04/02 01:03:05;;;;;;;;;;;;;;;14.83;59.19;99730.00;5077868;28;19920;-82
2023/04/02 01:06:03;;;;;;;;;;;;;;;14.85;58.98;99737.88;5075495;28;19916;-81
2023/04/02 01:09:04;;;;;;;;;;;;;;;14.86;58.75;99731.25;5079024;28;19924;-81
2023/04/02 01:12:09;;;;;;;;;;;;;;;14.81;58.77;99731.56;5058772;28;19917;-81
2023/04/02 01:15:08;;;;;;;;;;;;;;;14.79;58.56;99731.91;5058598;28;19917;-81
2023/04/02 01:18:19;;;;;;;;;;;;;;;14.83;58.76;99734.72;5050737;28;19917;-81
2023/04/02 01:21:29;;;;;;;;;;;;;;;14.88;58.60;99726.97;5058132;28;19917;-81
2023/04/02 01:24:19;;;;;;;;;;;;;;;14.85;58.60;99724.19;5058716;28;19917;-81
2023/04/02 01:27:17;;;;;;;;;;;;;;;14.82;58.55;99722.97;5058291;28;19921;-81
2023/04/02 01:30:11;;;;;;;;;;;;;;;14.83;58.65;99723.78;5058472;28;20388;-81
2023/04/02 01:33:03;;;;;;;;;;;;;;;14.81;58.54;99720.59;5058179;28;19917;-80
2023/04/02 01:35:57;;;;;;;;;;;;;;;14.70;59.30;99720.44;5060472;28;19921;-81
2023/04/02 01:39:12;;;;;;;;;;;;;;;14.73;58.89;99711.47;5057884;28;19916;-81
2023/04/02 01:42:08;;;;;;;;;;;;;;;14.84;58.47;99717.13;5061388;28;19921;-81
2023/04/02 01:45:04;;;;;;;;;;;;;;;14.72;59.17;99718.13;5056136;28;20396;-81
2023/04/02 01:47:56;;;;;;;;;;;;;;;14.84;58.63;99722.59;5054862;28;20384;-81
2023/04/02 01:50:49;;;;;;;;;;;;;;;14.80;58.81;99722.53;5037835;28;19917;-81
2023/04/02 01:53:41;;;;;;;;;;;;;;;14.82;59.08;99733.13;5037360;28;19919;-82
2023/04/02 01:56:33;;;;;;;;;;;;;;;14.80;58.97;99732.69;5040972;28;19917;-80
2023/04/02 01:59:23;;;;;;;;;;;;;;;14.82;58.70;99739.41;5038195;28;19921;-81
2023/04/02 02:02:18;;;;;;;;;;;;;;;14.76;58.99;99742.81;5041529;28;19921;-81
2023/04/02 02:05:14;;;;;;;;;;;;;;;14.79;58.87;99744.81;5039536;28;19917;-81
2023/04/02 02:08:08;;;;;;;;;;;;;;;14.75;58.92;99754.91;5037336;28;19922;-81
2023/04/02 02:11:01;;;;;;;;;;;;;;;14.71;59.02;99760.34;5038302;28;19917;-81
2023/04/02 02:14:00;;;;;;;;;;;;;;;14.52;58.89;99758.47;5039380;28;19917;-80
2023/04/02 02:16:54;;;;;;;;;;;;;;;14.46;59.28;99765.38;5042377;28;19917;-81
2023/04/02 02:19:46;;;;;;;;;;;;;;;14.49;59.12;99770.13;5039130;28;19917;-81
2023/04/02 02:22:39;;;;;;;;;;;;;;;14.50;59.17;99777.19;5037354;28;19917;-81
2023/04/02 02:25:32;;;;;;;;;;;;;;;14.51;60.12;99791.66;5038519;28;19917;-81
2023/04/02 02:28:24;;;;;;;;;;;;;;;14.44;60.44;99797.78;5058453;28;19921;-80
2023/04/02 02:31:17;;;;;;;;;;;;;;;14.28;60.22;99802.50;5055899;28;19917;-81
2023/04/02 02:34:36;;;;;;;;;;;;;;;14.23;61.07;99799.28;5059299;28;19917;-81
2023/04/02 02:37:30;;;;;;;;;;;;;;;14.33;61.22;99790.47;5035383;28;19917;-81
2023/04/02 02:40:22;;;;;;;;;;;;;;;14.35;61.30;99797.19;5040318;28;20288;-80
2023/04/02 02:43:16;;;;;;;;;;;;;;;14.43;60.95;99798.13;5057266;28;20388;-81
2023/04/02 02:46:09;;;;;;;;;;;;;;;14.40;61.14;99794.19;5061156;28;19917;-80
2023/04/02 02:49:03;;;;;;;;;;;;;;;14.46;60.65;99798.22;5058924;28;19921;-80
2023/04/02 02:52:02;;;;;;;;;;;;;;;14.64;60.37;99805.94;5055986;28;19921;-80
2023/04/02 02:55:01;;;;;;;;;;;;;;;14.52;60.69;99809.66;5059486;28;19917;-80
2023/04/02 02:58:02;;;;;;;;;;;;;;;14.38;61.27;99812.09;5056197;28;19916;-80
2023/04/02 03:00:54;;;;;;;;;;;;;;;14.39;60.82;99814.47;5056665;28;19920;-80
2023/04/02 03:03:43;;;;;;;;;;;;;;;14.42;60.92;99813.78;5057638;28;19917;-80
2023/04/02 03:06:37;;;;;;;;;;;;;;;14.35;61.39;99813.59;5055519;28;19917;-80
2023/04/02 03:09:46;;;;;;;;;;;;;;;14.30;60.80;99816.63;5059033;28;19921;-80
2023/04/02 03:12:39;;;;;;;;;;;;;;;14.32;61.20;99816.28;5055966;28;19916;-81
2023/04/02 03:15:42;;;;;;;;;;;;;;;14.28;61.27;99824.41;5059790;28;19917;-81
2023/04/02 03:18:54;;;;;;;;;;;;;;;14.23;61.61;99827.41;5057462;28;19916;-82
2023/04/02 03:21:49;;;;;;;;;;;;;;;14.19;61.76;99823.03;5037548;28;19921;-81
2023/04/02 03:24:42;;;;;;;;;;;;;;;14.20;61.63;99827.34;5057625;28;19925;-81
2023/04/02 03:27:35;;;;;;;;;;;;;;;14.21;61.79;99827.00;5060744;28;20392;-81
2023/04/02 03:30:33;;;;;;;;;;;;;;;14.16;61.93;99827.31;5056092;28;20308;-81
2023/04/02 03:33:33;;;;;;;;;;;;;;;14.13;61.94;99825.28;5055922;28;19920;-81
2023/04/02 03:36:29;;;;;;;;;;;;;;;14.18;62.10;99835.91;5057600;28;20305;-80
2023/04/02 03:39:25;;;;;;;;;;;;;;;14.12;62.25;99829.16;5060790;28;19916;-82
2023/04/02 03:42:17;;;;;;;;;;;;;;;14.17;62.06;99844.50;5058438;28;19913;-81
2023/04/02 03:45:14;;;;;;;;;;;;;;;14.13;62.25;99842.47;5049355;28;19916;-81
2023/04/02 03:48:10;;;;;;;;;;;;;;;14.12;62.23;99848.28;5046706;28;19921;-81
2023/04/02 03:51:17;;;;;;;;;;;;;;;14.04;62.21;99844.63;5067474;28;19917;-82
2023/04/02 03:54:13;;;;;;;;;;;;;;;14.04;62.29;99846.56;5040012;28;19917;-81
2023/04/02 03:57:06;;;;;;;;;;;;;;;14.11;62.06;99846.72;5037762;28;19921;-81
2023/04/02 04:00:06;;;;;;;;;;;;;;;14.02;62.07;99841.44;5035357;28;19917;-81
2023/04/02 04:03:08;;;;;;;;;;;;;;;14.00;62.33;99841.03;5035878;28;19918;-80
2023/04/02 04:06:04;;;;;;;;;;;;;;;14.01;62.55;99855.50;5035491;28;19917;-80
2023/04/02 04:08:57;;;;;;;;;;;;;;;13.96;62.18;99866.72;5038225;28;19921;-80
2023/04/02 04:11:50;;;;;;;;;;;;;;;13.98;62.45;99864.41;5036049;28;19925;-79
2023/04/02 04:14:44;;;;;;;;;;;;;;;14.08;62.27;99870.09;5043303;28;19925;-80
2023/04/02 04:17:38;;;;;;;;;;;;;;;13.96;62.56;99867.50;5056619;28;19920;-80
2023/04/02 04:20:30;;;;;;;;;;;;;;;13.97;62.37;99874.53;5053396;28;19917;-80
2023/04/02 04:23:24;;;;;;;;;;;;;;;13.91;62.58;99889.66;5065657;28;20395;-80
2023/04/02 04:26:18;;;;;;;;;;;;;;;13.82;63.10;99888.25;5060866;28;20387;-80
2023/04/02 04:29:14;;;;;;;;;;;;;;;13.79;63.27;99894.44;5058381;28;19921;-81
2023/04/02 04:32:16;;;;;;;;;;;;;;;13.79;63.46;99897.97;5069968;28;19916;-80
2023/04/02 04:35:17;;;;;;;;;;;;;;;13.74;63.41;99902.91;5059036;28;19917;-79
2023/04/02 04:38:10;;;;;;;;;;;;;;;13.75;63.29;99915.44;5062779;28;19916;-80
2023/04/02 04:41:05;;;;;;;;;;;;;;;13.76;63.08;99912.34;5059393;28;19917;-80
2023/04/02 04:44:16;;;;;;;;;;;;;;;13.76;63.02;99911.56;5056668;28;19917;-80
2023/04/02 04:47:14;;;;;;;;;;;;;;;13.84;62.97;99916.81;5057167;28;19917;-80
2023/04/02 04:50:25;;;;;;;;;;;;;;;13.75;63.48;99918.97;5062127;28;19929;-80
2023/04/02 04:53:18;;;;;;;;;;;;;;;13.80;63.32;99929.63;5056950;28;19917;-81
2023/04/02 04:56:12;;;;;;;;;;;;;;;13.76;63.07;99938.88;5054514;28;19925;-80
2023/04/02 04:59:05;;;;;;;;;;;;;;;13.66;63.39;99942.97;5070989;28;19917;-81
2023/04/02 05:02:08;;;;;;;;;;;;;;;13.61;63.89;99938.53;5064755;28;19917;-80
2023/04/02 05:05:01;;;;;;;;;;;;;;;13.64;63.53;99948.75;5056769;28;20284;-79
2023/04/02 05:08:06;;;;;;;;;;;;;;;13.68;63.50;99960.56;5060120;28;19924;-80
2023/04/02 05:11:03;;;;;;;;;;;;;;;13.68;63.52;99960.56;5058260;28;19917;-80
2023/04/02 05:14:05;;;;;;;;;;;;;;;13.71;63.31;99968.03;5052953;28;19921;-82
2023/04/02 05:17:18;;;;;;;;;;;;;;;13.63;63.75;99966.31;5057689;28;20384;-83
2023/04/02 05:20:15;;;;;;;;;;;;;;;13.67;63.86;99974.56;5052833;28;19917;-82
2023/04/02 05:23:11;;;;;;;;;;;;;;;13.76;63.55;99974.41;5058254;28;19917;-82
2023/04/02 05:26:09;;;;;;;;;;;;;;;13.69;63.85;99970.34;5055263;28;19917;-82
2023/04/02 05:29:02;;;;;;;;;;;;;;;13.66;64.41;99973.78;5038919;28;19921;-81
2023/04/02 05:32:00;;;;;;;;;;;;;;;13.62;64.71;99983.03;5057622;28;19917;-81
2023/04/02 05:34:54;;;;;;;;;;;;;;;13.40;65.37;99987.19;5040065;28;19917;-81
2023/04/02 05:37:46;;;;;;;;;;;;;;;13.41;66.18;99988.75;5037949;28;19921;-81
2023/04/02 05:40:45;;;;;;;;;;;;;;;13.40;66.67;99987.19;5053387;28;19917;-81
2023/04/02 05:43:38;;;;;;;;;;;;;;;13.43;66.68;99997.41;5052885;28;19918;-80
2023/04/02 05:46:31;;;;;;;;;;;;;;;13.37;67.43;99998.81;5042376;28;19917;-80
2023/04/02 05:49:27;;;;;;;;;;;;;;;13.39;67.77;100004.72;5039646;28;20297;-80
2023/04/02 05:52:21;;;;;;;;;;;;;;;13.30;68.13;100001.38;5039632;28;19917;-80
2023/04/02 05:55:17;;;;;;;;;;;;;;;13.38;67.59;100022.25;5055421;28;19916;-80
2023/04/02 05:58:26;;;;;;;;;;;;;;;13.32;68.69;100017.38;5052161;28;20303;-80
2023/04/02 06:01:21;;;;;;;;;;;;;;;13.31;68.60;100030.25;5056564;28;19916;-80
2023/04/02 06:04:26;;;;;;;;;;;;;;;13.29;68.92;100032.53;5059438;28;19917;-80
2023/04/02 06:07:24;;;;;;;;;;;;;;;13.41;68.46;100040.66;5061668;28;19917;-80
2023/04/02 06:10:19;;;;;;;;;;;;;;;13.38;68.51;100044.09;5058623;28;19921;-80
2023/04/02 06:13:17;;;;;;;;;;;;;;;13.42;68.29;100044.19;5057070;28;19917;-80
2023/04/02 06:16:11;;;;;;;;;;;;;;;13.24;69.30;100043.72;5060366;28;19917;-80
2023/04/02 06:19:01;;;;;;;;;;;;;;;13.19;69.73;100044.78;5058971;28;19916;-81
2023/04/02 06:21:54;;;;;;;;;;;;;;;13.20;69.38;100060.00;5057085;28;19925;-81
2023/04/02 06:24:47;;;;;;;;;;;;;;;13.14;69.46;100053.22;5059486;28;19917;-82
2023/04/02 06:27:41;;;;;;;;;;;;;;;13.15;69.39;100056.75;5057717;28;19917;-82
2023/04/02 06:30:41;;;;;;;;;;;;;;;13.18;68.88;100062.28;5059248;28;19917;-82
2023/04/02 06:33:34;;;;;;;;;;;;;;;13.13;68.51;100069.94;5037175;28;19917;-81
2023/04/02 06:36:26;;;;;;;;;;;;;;;12.93;69.36;100076.34;5055443;28;19917;-81
2023/04/02 06:39:21;;;;;;;;;;;;;;;13.02;69.15;100077.00;5039810;28;19921;-81
2023/04/02 06:42:18;;;;;;;;;;;;;;;13.00;68.87;100088.28;5051181;28;19921;-82
2023/04/02 06:45:25;;;;;;;;;;;;;;;12.89;68.95;100089.91;5054373;28;20308;-82
2023/04/02 06:48:34;;;;;;;;;;;;;;;12.93;68.87;100087.25;5050333;28;19925;-81
2023/04/02 06:51:27;;;;;;;;;;;;;;;12.97;68.70;100085.44;5035820;28;19921;-81
2023/04/02 06:54:17;;;;;;;;;;;;;;;13.03;67.91;100086.78;5060082;28;19921;-82
2023/04/02 06:57:10;;;;;;;;;;;;;;;13.06;67.63;100083.34;5060931;28;19916;-81
2023/04/02 07:00:02;;;;;;;;;;;;;;;13.11;67.88;100089.38;5085595;22;19918;-87
2023/04/02 07:02:53;;;;;;;;;;;;;;;13.14;67.59;100096.09;5082664;28;19924;-87
2023/04/02 07:05:43;;;;;;;;;;;;;;;13.18;67.21;100105.97;5081934;28;19921;-87
2023/04/02 07:08:35;;;;;;;;;;;;;;;13.22;67.04;100116.97;5079986;28;19924;-87
2023/04/02 07:11:27;;;;;;;;;;;;;;;13.33;67.67;100129.00;5062766;28;19917;-87
2023/04/02 07:14:32;;;;;;;;;;;;;;;13.36;69.25;100127.53;5066778;28;19917;-87
2023/04/02 07:17:23;;;;;;;;;;;;;;;13.33;70.56;100126.28;5071991;28;19917;-86
2023/04/02 07:20:30;;;;;;;;;;;;;;;13.22;72.18;100136.09;5076205;28;19920;-86
2023/04/02 07:23:20;;;;;;;;;;;;;;;12.93;75.73;100136.38;5083577;28;20372;-86
2023/04/02 07:26:14;;;;;;;;;;;;;;;12.86;76.41;100136.97;5083819;28;19924;-87
2023/04/02 07:29:14;;;;;;;;;;;;;;;12.78;76.46;100146.88;5077873;28;19925;-87
2023/04/02 07:32:04;;;;;;;;;;;;;;;12.91;75.89;100155.03;5075879;28;19916;-86
2023/04/02 07:34:56;;;;;;;;;;;;;;;12.90;75.78;100173.31;5069208;28;19921;-86
2023/04/02 07:37:50;;;;;;;;;;;;;;;13.02;75.23;100172.53;5076450;28;19916;-88
2023/04/02 07:40:42;;;;;;;;;;;;;;;13.05;75.15;100183.56;5067660;28;20296;-87
2023/04/02 07:43:34;;;;;;;;;;;;;;;13.13;74.44;100187.31;5073518;28;19917;-88
2023/04/02 07:46:58;;;;;;;;;;;;;;;13.12;74.47;100204.81;5077039;28;20307;-88
2023/04/02 07:49:50;;;;;;;;;;;;;;;13.16;74.37;100216.66;5094764;28;19921;-87
2023/04/02 07:52:47;;;;;;;;;;;;;;;13.21;73.99;100219.13;5074983;28;19916;-88
2023/04/02 07:55:36;;;;;;;;;;;;;;;13.23;73.50;100217.66;5075960;28;20411;-85
2023/04/02 07:58:28;;;;;;;;;;;;;;;13.29;73.49;100220.97;5079904;28;19922;-85
2023/04/02 08:01:21;;;;;;;;;;;;;;;13.39;73.38;100217.75;5055477;28;19917;-90
2023/04/02 08:04:15;;;;;;;;;;;;;;;13.51;72.50;100225.88;5060478;28;19917;-80
2023/04/02 08:07:07;;;;;;;;;;;;;;;13.65;72.14;100229.03;5058708;28;20391;-74
2023/04/02 08:09:59;;;;;;;;;;;;;;;13.95;69.84;100226.75;5070429;28;19921;-78
2023/04/02 08:12:51;;;;;;;;;;;;;;;14.16;69.08;100236.66;5072809;28;20294;-84
2023/04/02 08:15:40;;;;;;;;;;;;;;;14.27;69.08;100240.47;5080030;28;19916;-84
2023/04/02 08:18:32;;;;;;;;;;;;;;;14.42;66.79;100237.78;5072163;28;19917;-86
2023/04/02 08:21:24;;;;;;;;;;;;;;;14.55;66.49;100244.75;5068680;28;19920;-84
2023/04/02 08:24:16;;;;;;;;;;;;;;;14.72;65.95;100242.81;5070469;28;19917;-86
2023/04/02 08:27:08;;;;;;;;;;;;;;;14.69;65.04;100248.97;5060515;28;19916;-85
2023/04/02 08:30:02;;;;;;;;;;;;;;;14.59;64.92;100244.81;5077773;28;19920;-85
2023/04/02 08:32:57;;;;;;;;;;;;;;;14.64;64.13;100246.50;5058968;28;19917;-85
2023/04/02 08:35:53;;;;;;;;;;;;;;;14.60;64.43;100237.41;5051691;28;20295;-85
2023/04/02 08:38:46;;;;;;;;;;;;;;;14.81;63.46;100240.66;5063572;28;19925;-80
2023/04/02 08:41:37;;;;;;;;;;;;;;;15.12;62.64;100248.84;5066566;28;19917;-81
2023/04/02 08:44:30;;;;;;;;;;;;;;;15.04;62.64;100243.53;5056676;28;19917;-81
2023/04/02 08:47:24;;;;;;;;;;;;;;;15.21;62.00;100252.16;5068938;28;20310;-82
2023/04/02 08:50:34;;;;;;;;;;;;;;;15.27;61.79;100255.41;5056845;28;19925;-81
2023/04/02 08:53:24;;;;;;;;;;;;;;;15.23;61.89;100251.81;5066515;28;19917;-80
2023/04/02 08:56:17;;;;;;;;;;;;;;;15.12;61.38;100251.56;5071060;28;20375;-82
2023/04/02 08:59:26;;;;;;;;;;;;;;;14.82;63.28;100264.16;5064533;28;20399;-81
2023/04/02 09:02:34;;;;;;;;;;;;;;;14.71;63.56;100252.94;5076736;28;19916;-81
2023/04/02 09:05:29;;;;;;;;;;;;;;;14.67;63.30;100256.75;5075430;28;19934;-82
2023/04/02 09:08:23;;;;;;;;;;;;;;;14.61;62.48;100247.22;5070696;28;19921;-82
2023/04/02 09:11:16;;;;;;;;;;;;;;;14.58;63.94;100267.09;5061172;28;20380;-81
2023/04/02 09:14:14;;;;;;;;;;;;;;;14.03;65.38;100266.78;5063590;28;19917;-81
2023/04/02 09:17:11;;;;;;;;;;;;;;;13.64;67.44;100260.22;5071118;28;19920;-80
2023/04/02 09:20:19;;;;;;;;;;;;;;;13.84;67.17;100271.31;5064059;28;19920;-85
2023/04/02 09:23:20;;;;;;;;;;;;;;;13.58;68.45;100272.53;5057216;28;19917;-82
2023/04/02 09:26:26;;;;;;;;;;;;;;;13.27;70.74;100269.66;5068719;28;19916;-82
2023/04/02 09:29:15;;;;;;;;;;;;;;;13.18;70.12;100268.97;5067019;28;19920;-82
2023/04/02 09:32:23;;;;;;;;;;;;;;;13.27;70.27;100294.22;5081781;28;20291;-82
2023/04/02 09:35:22;;;;;;;;;;;;;;;13.22;70.90;100291.72;5063267;28;19917;-81
2023/04/02 09:38:14;;;;;;;;;;;;;;;13.12;71.88;100297.66;5074024;28;20363;-82
2023/04/02 09:41:04;;;;;;;;;;;;;;;13.15;69.60;100291.53;5075856;28;19920;-83
2023/04/02 09:44:12;;;;;;;;;;;;;;;13.19;69.17;100295.16;5060696;28;20303;-81
2023/04/02 09:47:07;;;;;;;;;;;;;;;13.31;68.06;100292.38;5074566;28;19916;-82
2023/04/02 09:50:13;;;;;;;;;;;;;;;12.97;69.95;100309.22;5062853;28;19920;-83
2023/04/02 09:53:22;;;;;;;;;;;;;;;12.93;71.21;100300.94;5068876;28;19917;-82
2023/04/02 09:56:12;;;;;;;;;;;;;;;13.06;71.27;100309.91;5062013;28;19920;-82
2023/04/02 09:59:05;;;;;;;;;;;;;;;13.31;69.43;100306.03;5084748;28;19916;-81
2023/04/02 10:02:00;;;;;;;;;;;;;;;13.31;69.28;100306.03;5066903;28;19916;-84
2023/04/02 10:04:50;;;;;;;;;;;;;;;13.33;69.53;100303.78;5064508;28;19924;-84
2023/04/02 10:07:43;;;;;;;;;;;;;;;13.40;70.12;100300.47;5077906;28;19916;-82
2023/04/02 10:10:45;;;;;;;;;;;;;;;13.63;70.30;100285.16;5077863;28;19921;-85
2023/04/02 10:13:38;;;;;;;;;;;;;;;13.63;67.69;100275.03;5081323;28;19915;-83
2023/04/02 10:16:33;;;;;;;;;;;;;;;13.68;69.40;100277.50;5075944;28;19925;-82
2023/04/02 10:19:35;;;;;;;;;;;;;;;13.80;68.58;100267.69;5074823;28;19921;-82
2023/04/02 10:22:28;;;;;;;;;;;;;;;13.68;69.38;100274.78;5080213;28;19920;-82
2023/04/02 10:25:19;;;;;;;;;;;;;;;13.88;66.67;100269.47;5072847;28;19924;-83
2023/04/02 10:28:22;;;;;;;;;;;;;;;14.09;66.26;100259.13;5084366;28;19916;-82
2023/04/02 10:31:21;;;;;;;;;;;;;;;14.50;65.12;100261.41;5079522;28;19916;-81
2023/04/02 10:34:20;;;;;;;;;;;;;;;14.97;64.90;100255.13;5085250;28;20294;-82
2023/04/02 10:37:29;;;;;;;;;;;;;;;15.36;66.09;100259.53;5080876;28;19916;-82
2023/04/02 10:40:34;;;;;;;;;;;;;;;15.66;65.87;100267.25;5067732;28;19924;-82
2023/04/02 10:43:24;;;;;;;;;;;;;;;16.09;64.49;100261.47;5077597;28;20116;-81
2023/04/02 10:46:13;;;;;;;;;;;;;;;16.30;62.13;100265.75;5074383;28;19920;-82
2023/04/02 10:49:29;;;;;;;;;;;;;;;16.71;62.12;100264.16;5085392;28;20415;-83
2023/04/02 10:52:25;;;;;;;;;;;;;;;16.75;59.26;100259.50;5063545;28;20468;-81
2023/04/02 10:55:17;;;;;;;;;;;;;;;17.54;56.39;100252.03;5070775;28;21369;-83
2023/04/02 10:58:17;;;;;;;;;;;;;;;17.33;55.35;100252.53;5075325;28;19916;-82
2023/04/02 11:01:10;;;;;;;;;;;;;;;18.09;53.99;100253.09;5063669;28;19920;-82
2023/04/02 11:04:04;;;;;;;;;;;;;;;19.05;51.55;100262.22;5072397;28;19917;-83
2023/04/02 11:06:56;;;;;;;;;;;;;;;19.39;49.85;100271.13;5073139;28;19920;-83
2023/04/02 11:09:49;;;;;;;;;;;;;;;19.60;50.36;100266.56;5072793;28;19920;-82
2023/04/02 11:12:48;;;;;;;;;;;;;;;19.08;51.53;100270.53;5064495;28;20388;-82
2023/04/02 11:15:40;;;;;;;;;;;;;;;19.49;49.75;100276.75;5077781;28;19920;-82
2023/04/02 11:18:34;;;;;;;;;;;;;;;19.68;47.91;100283.13;5095932;28;20327;-82
2023/04/02 11:21:43;;;;;;;;;;;;;;;20.68;45.27;100285.00;5081959;28;19917;-82
2023/04/02 11:24:35;;;;;;;;;;;;;;;21.48;42.43;100294.47;5082798;28;19916;-81
2023/04/02 11:27:30;;;;;;;;;;;;;;;21.39;41.52;100307.91;5076780;28;20299;-83
2023/04/02 11:30:25;;;;;;;;;;;;;;;20.75;39.80;100309.88;5083685;28;19925;-83
2023/04/02 11:33:38;;;;;;;;;;;;;;;20.32;41.71;100312.56;5085727;28;19916;-83
2023/04/02 11:36:46;;;;;;;;;;;;;;;19.84;43.49;100316.72;5081796;28;19916;-85
2023/04/02 11:39:55;;;;;;;;;;;;;;;19.26;43.30;100311.22;5084214;28;19917;-81
2023/04/02 11:42:48;;;;;;;;;;;;;;;18.82;47.18;100317.56;5085465;28;20291;-82
2023/04/02 11:45:53;;;;;;;;;;;;;;;18.52;47.67;100314.91;5084715;28;20291;-84
2023/04/02 11:48:45;;;;;;;;;;;;;;;18.24;48.00;100328.34;5082435;28;19920;-82
2023/04/02 11:51:37;;;;;;;;;;;;;;;18.01;46.22;100338.72;5082856;28;19916;-83
2023/04/02 11:54:29;;;;;;;;;;;;;;;17.31;43.49;100331.84;5082761;28;19917;-83
2023/04/02 11:57:29;;;;;;;;;;;;;;;16.64;44.00;100337.00;5070313;28;19920;-84
2023/04/02 12:00:28;;;;;;;;;;;;;;;16.08;47.60;100336.69;5065199;28;19917;-85
2023/04/02 12:03:27;;;;;;;;;;;;;;;15.71;48.87;100313.56;5086387;28;20302;-87
2023/04/02 12:06:47;;;;;;;;;;;;;;;15.21;50.96;100317.09;5077287;28;19924;-87
2023/04/02 12:09:55;;;;;;;;;;;;;;;15.17;50.38;100308.81;5082408;28;19920;-88
2023/04/02 12:12:47;;;;;;;;;;;;;;;15.21;51.44;100304.22;5075984;28;19916;-86
2023/04/02 12:15:50;;;;;;;;;;;;;;;14.92;52.99;100312.91;5076396;28;19917;-86
2023/04/02 12:18:54;;;;;;;;;;;;;;;14.81;52.86;100333.75;5083081;28;20098;-86
2023/04/02 12:21:47;;;;;;;;;;;;;;;14.78;53.98;100320.78;5066692;28;19925;-86
2023/04/02 12:24:38;;;;;;;;;;;;;;;14.74;53.35;100333.53;5073107;28;19916;-84
2023/04/02 12:27:29;;;;;;;;;;;;;;;14.71;53.39;100328.78;5073410;28;19916;-85
2023/04/02 12:30:22;;;;;;;;;;;;;;;14.84;51.01;100324.81;5071283;28;19921;-84
2023/04/02 12:33:29;;;;;;;;;;;;;;;14.83;52.55;100321.28;5065792;28;19916;-84
2023/04/02 12:36:21;;;;;;;;;;;;;;;14.87;52.96;100324.13;5078338;28;20387;-85
2023/04/02 12:39:15;;;;;;;;;;;;;;;14.89;54.87;100295.22;5087818;28;19916;-85
2023/04/02 12:42:04;;;;;;;;;;;;;;;14.93;49.69;100284.38;5069812;28;19920;-84
2023/04/02 12:44:56;;;;;;;;;;;;;;;15.02;51.88;100265.00;5082140;28;19924;-84
2023/04/02 12:47:49;;;;;;;;;;;;;;;15.09;49.06;100270.63;5080014;28;20327;-86
2023/04/02 12:50:40;;;;;;;;;;;;;;;15.14;47.39;100252.00;5080974;28;19928;-84
2023/04/02 12:53:32;;;;;;;;;;;;;;;15.26;47.32;100238.19;5077715;28;19946;-85
2023/04/02 12:56:25;;;;;;;;;;;;;;;15.33;46.85;100234.81;5087902;28;20379;-86
2023/04/02 12:59:33;;;;;;;;;;;;;;;15.56;44.65;100223.97;5092256;28;19920;-85
2023/04/02 13:02:28;;;;;;;;;;;;;;;15.71;43.58;100217.63;5094016;28;19916;-86
2023/04/02 13:05:38;;;;;;;;;;;;;;;15.81;44.14;100214.28;5087560;28;19921;-86
2023/04/02 13:08:31;;;;;;;;;;;;;;;15.92;44.78;100207.06;5088464;28;19917;-85
2023/04/02 13:11:25;;;;;;;;;;;;;;;16.11;44.55;100215.25;5086561;28;19916;-84
2023/04/02 13:14:21;;;;;;;;;;;;;;;16.17;49.33;100210.25;5091737;28;19916;-86
2023/04/02 13:17:29;;;;;;;;;;;;;;;16.29;53.20;100231.25;5089953;28;19916;-87
2023/04/02 13:20:34;;;;;;;;;;;;;;;16.27;51.39;100229.66;5092916;28;19924;-86
2023/04/02 13:26:24;;;;;;;;;;;;;;;16.25;51.11;100220.22;5023228;28;19955;-90
2023/04/02 13:29:25;;;;;;;;;;;;;;;16.23;50.41;100217.03;5016071;28;19925;-86
2023/04/02 13:32:15;;;;;;;;;;;;;;;16.18;49.37;100209.91;5035417;28;20372;-86
2023/04/02 13:35:07;;;;;;;;;;;;;;;16.23;50.58;100211.53;5037282;28;19917;-87
2023/04/02 13:37:56;;;;;;;;;;;;;;;16.38;50.12;100213.38;5036892;28;19917;-87
2023/04/02 13:40:48;;;;;;;;;;;;;;;16.44;49.63;100211.91;5025829;28;20372;-88
2023/04/02 13:43:40;;;;;;;;;;;;;;;16.57;50.29;100210.56;5024911;28;20373;-88
2023/04/02 13:46:33;;;;;;;;;;;;;;;16.81;48.98;100219.59;5020707;28;19917;-87
2023/04/02 13:49:25;;;;;;;;;;;;;;;17.09;49.65;100218.06;5026123;28;19921;-88
2023/04/02 13:52:17;;;;;;;;;;;;;;;17.25;47.52;100219.84;5023106;28;19917;-88
2023/04/02 13:55:09;;;;;;;;;;;;;;;17.32;45.76;100209.72;5026308;28;19917;-88
2023/04/02 13:58:01;;;;;;;;;;;;;;;17.56;47.16;100211.22;5019026;28;20377;-87
2023/04/02 14:00:51;;;;;;;;;;;;;;;17.70;46.43;100218.88;5029771;28;19921;-90
2023/04/02 14:03:43;;;;;;;;;;;;;;;17.85;47.01;100226.13;5026298;28;19925;-89
2023/04/02 14:06:42;;;;;;;;;;;;;;;17.98;45.17;100218.41;5039041;28;19917;-86
2023/04/02 14:09:53;;;;;;;;;;;;;;;18.14;44.89;100225.25;5020162;28;20385;-88
2023/04/02 14:13:02;;;;;;;;;;;;;;;18.29;44.29;100220.66;5024357;28;20289;-89
2023/04/02 14:16:05;;;;;;;;;;;;;;;18.42;41.45;100210.97;5019935;28;19917;-87
2023/04/02 14:19:11;;;;;;;;;;;;;;;18.50;42.08;100218.09;5019593;28;20624;-87
2023/04/02 14:22:18;;;;;;;;;;;;;;;18.57;39.00;100223.72;5011715;28;19917;-87
2023/04/02 14:25:19;;;;;;;;;;;;;;;18.65;36.48;100217.06;5032956;28;19917;-87
2023/04/02 14:28:26;;;;;;;;;;;;;;;18.70;36.79;100213.97;5001911;28;19917;-87
2023/04/02 14:31:26;;;;;;;;;;;;;;;18.66;34.88;100207.66;5008354;28;19921;-87
2023/04/02 14:34:25;;;;;;;;;;;;;;;18.59;33.42;100212.31;4995847;28;19918;-86
2023/04/02 14:37:25;;;;;;;;;;;;;;;18.67;34.18;100208.44;5002204;28;20373;-87
2023/04/02 14:40:17;;;;;;;;;;;;;;;18.76;33.03;100212.44;5016360;28;19921;-87
2023/04/02 14:43:16;;;;;;;;;;;;;;;18.92;32.12;100206.66;4997708;28;19917;-86
2023/04/02 14:46:11;;;;;;;;;;;;;;;18.83;32.39;100199.91;4996417;28;19918;-86
2023/04/02 14:49:07;;;;;;;;;;;;;;;18.83;34.16;100206.22;5007597;28;19918;-87
2023/04/02 14:52:01;;;;;;;;;;;;;;;18.98;33.74;100201.56;5012814;28;19918;-85
2023/04/02 14:54:56;;;;;;;;;;;;;;;18.99;32.66;100200.41;5013857;28;19917;-85
2023/04/02 14:57:50;;;;;;;;;;;;;;;19.04;33.94;100200.84;5018254;28;20190;-87
2023/04/02 15:00:45;;;;;;;;;;;;;;;19.07;33.12;100196.50;5013362;28;19917;-87
2023/04/02 15:03:39;;;;;;;;;;;;;;;19.10;34.19;100193.75;5013527;28;19917;-87
2023/04/02 15:06:32;;;;;;;;;;;;;;;19.06;33.13;100203.19;5013467;28;19947;-86
2023/04/02 15:09:28;;;;;;;;;;;;;;;19.06;31.46;100197.69;4997156;28;19929;-87
2023/04/02 15:12:25;;;;;;;;;;;;;;;19.10;30.85;100204.00;4984786;28;19917;-87
2023/04/02 15:15:20;;;;;;;;;;;;;;;18.98;32.07;100191.34;4984473;28;19917;-87
2023/04/02 15:18:12;;;;;;;;;;;;;;;18.96;33.26;100190.13;5023271;28;19917;-87
2023/04/02 15:21:16;;;;;;;;;;;;;;;18.95;32.03;100194.06;5012292;28;19917;-87
2023/04/02 15:24:23;;;;;;;;;;;;;;;18.90;32.07;100199.94;5013891;28;19918;-85
2023/04/02 15:27:36;;;;;;;;;;;;;;;18.88;32.71;100196.78;4997104;28;19921;-86